Time;durP1;ratioP1;P1;durP2;ratioP2;P2;SDS_P1;SDS_P2;PMS_P1;PMS_P2;Temp;Humidity;BMP_temperature;BMP_pressure;BME280_temperature;BME280_humidity;BME280_pressure;Samples;Min_cycle;Max_cycle;Signal;HPM_P1;HPM_P2
2024/01/01 00:01:40;;;;;;;7.00;4.28;;;6.40;99.90;;;;;;5083529;28;20059;-78
2024/01/01 00:04:08;;;;;;;8.10;3.78;;;6.40;99.90;;;;;;5080674;28;20040;-76
2024/01/01 00:06:34;;;;;;;2.33;2.13;;;6.40;99.90;;;;;;5078843;28;20065;-78
2024/01/01 00:09:01;;;;;;;1.33;1.23;;;6.40;99.90;;;;;;5079526;28;20055;-78
2024/01/01 00:11:27;;;;;;;4.13;2.83;;;6.30;99.90;;;;;;5081769;28;20040;-78
2024/01/01 00:13:53;;;;;;;3.00;2.17;;;6.30;99.90;;;;;;5078409;28;20025;-78
2024/01/01 00:16:19;;;;;;;1.45;1.35;;;6.30;99.90;;;;;;5083095;28;20519;-78
2024/01/01 00:18:47;;;;;;;2.03;1.08;;;6.30;99.90;;;;;;5078504;28;20024;-77
2024/01/01 00:21:13;;;;;;;4.30;2.63;;;6.30;99.90;;;;;;5080879;28;20035;-77
2024/01/01 00:23:39;;;;;;;1.67;1.58;;;6.30;99.90;;;;;;5060246;28;20041;-77
2024/01/01 00:26:05;;;;;;;3.22;2.83;;;6.30;99.90;;;;;;5081439;28;20377;-77
2024/01/01 00:28:31;;;;;;;0.73;0.73;;;6.30;99.90;;;;;;5083880;28;20047;-77
2024/01/01 00:30:58;;;;;;;6.90;2.90;;;6.30;99.90;;;;;;5081973;28;20044;-78
2024/01/01 00:33:24;;;;;;;6.63;2.95;;;6.40;99.90;;;;;;5080746;28;20052;-78
2024/01/01 00:35:50;;;;;;;2.63;2.42;;;6.40;99.90;;;;;;5080052;28;20048;-75
2024/01/01 00:38:16;;;;;;;3.40;1.98;;;6.40;99.90;;;;;;5064345;28;20419;-77
2024/01/01 00:40:42;;;;;;;1.95;1.80;;;6.50;99.90;;;;;;5076876;28;20128;-76
2024/01/01 00:43:10;;;;;;;1.75;1.60;;;6.50;99.90;;;;;;5060924;28;20047;-77
2024/01/01 00:45:36;;;;;;;3.53;1.65;;;6.50;99.90;;;;;;5081148;28;20040;-77
2024/01/01 00:48:03;;;;;;;4.90;2.30;;;6.60;99.90;;;;;;5080411;28;20036;-77
2024/01/01 00:50:29;;;;;;;1.15;1.05;;;6.50;99.90;;;;;;5075379;28;20037;-77
2024/01/01 00:52:55;;;;;;;4.68;1.27;;;6.60;99.90;;;;;;5075901;28;20035;-77
2024/01/01 00:55:22;;;;;;;0.70;0.52;;;6.60;99.90;;;;;;5074214;28;20037;-76
2024/01/01 00:57:48;;;;;;;2.42;1.48;;;6.60;95.90;;;;;;5078145;28;20158;-79
2024/01/01 01:00:15;;;;;;;2.85;1.67;;;6.70;92.10;;;;;;5078020;28;20055;-79
2024/01/01 01:02:41;;;;;;;0.38;0.38;;;6.70;83.10;;;;;;5066724;28;20040;-78
2024/01/01 01:05:08;;;;;;;2.03;1.35;;;6.70;78.90;;;;;;5077532;28;20076;-78
2024/01/01 01:07:35;;;;;;;1.08;0.98;;;6.70;63.40;;;;;;5061136;28;20044;-79
2024/01/01 01:10:01;;;;;;;0.55;0.55;;;6.70;66.50;;;;;;5068121;28;20036;-78
2024/01/01 01:12:27;;;;;;;0.60;0.57;;;6.70;61.20;;;;;;5079839;28;20032;-79
2024/01/01 01:14:54;;;;;;;0.60;0.60;;;6.70;71.70;;;;;;5076998;28;20048;-79
2024/01/01 01:17:20;;;;;;;0.43;0.43;;;6.70;60.80;;;;;;5076790;28;20036;-79
2024/01/01 01:19:46;;;;;;;0.95;0.95;;;6.70;40.70;;;;;;5078319;28;20032;-80
2024/01/01 01:22:12;;;;;;;0.95;0.95;;;6.80;38.70;;;;;;5077992;28;20020;-80
2024/01/01 01:24:39;;;;;;;0.40;0.40;;;6.80;31.40;;;;;;5077934;28;20032;-80
2024/01/01 01:27:05;;;;;;;0.73;0.68;;;6.80;18.80;;;;;;5078938;28;20036;-78
2024/01/01 01:29:31;;;;;;;0.30;0.30;;;6.90;5.10;;;;;;5075192;28;20020;-79
2024/01/01 01:31:57;;;;;;;2.17;0.88;;;6.90;1.00;;;;;;5078061;28;20040;-78
2024/01/01 01:34:24;;;;;;;0.32;0.32;;;7.00;1.00;;;;;;5060996;28;20044;-77
2024/01/01 01:36:50;;;;;;;0.75;0.47;;;7.10;1.00;;;;;;5076350;28;20028;-79
2024/01/01 01:39:16;;;;;;;0.82;0.82;;;7.10;1.00;;;;;;5077285;28;20110;-80
2024/01/01 01:41:42;;;;;;;2.17;0.90;;;7.10;1.00;;;;;;5076288;28;20047;-79
2024/01/01 01:44:08;;;;;;;3.90;1.33;;;7.10;1.00;;;;;;5056872;28;20484;-80
2024/01/01 01:46:35;;;;;;;0.30;0.30;;;7.10;1.00;;;;;;5049565;28;20051;-78
2024/01/01 01:49:02;;;;;;;0.55;0.55;;;7.10;1.00;;;;;;5075300;28;20060;-79
2024/01/01 01:51:28;;;;;;;0.63;0.63;;;7.10;1.00;;;;;;5077073;28;20048;-79
2024/01/01 01:53:55;;;;;;;2.25;1.10;;;7.00;1.00;;;;;;5078882;28;20028;-80
2024/01/01 01:56:21;;;;;;;19.10;1.17;;;7.00;1.00;;;;;;5077040;28;20465;-79
2024/01/01 01:58:48;;;;;;;0.70;0.60;;;7.10;1.00;;;;;;5060262;28;20040;-79
2024/01/01 02:01:15;;;;;;;0.52;0.52;;;7.10;1.00;;;;;;5061978;28;20044;-79
2024/01/01 02:03:44;;;;;;;3.20;1.45;;;7.10;1.00;;;;;;5058795;28;20401;-79
2024/01/01 02:06:11;;;;;;;0.85;0.73;;;7.10;1.00;;;;;;5064074;28;20523;-79
2024/01/01 02:08:37;;;;;;;0.90;0.75;;;7.10;1.00;;;;;;5062780;28;20044;-80
2024/01/01 02:11:03;;;;;;;1.48;0.65;;;7.10;1.00;;;;;;5079726;28;20496;-80
2024/01/01 02:13:30;;;;;;;0.57;0.55;;;7.10;1.00;;;;;;5082797;28;20035;-80
2024/01/01 02:15:56;;;;;;;1.45;0.65;;;7.10;1.00;;;;;;5086757;28;20040;-80
2024/01/01 02:18:25;;;;;;;0.30;0.30;;;7.10;1.00;;;;;;5078666;28;20040;-79
2024/01/01 02:20:51;;;;;;;2.03;0.75;;;7.10;1.00;;;;;;5064629;28;20502;-80
2024/01/01 02:23:18;;;;;;;0.80;0.65;;;7.10;1.00;;;;;;5079409;28;20044;-78
2024/01/01 02:25:45;;;;;;;1.38;1.13;;;7.10;1.00;;;;;;5068695;28;20465;-79
2024/01/01 02:28:11;;;;;;;1.10;1.00;;;7.10;1.00;;;;;;5078454;28;20031;-79
2024/01/01 02:30:38;;;;;;;0.32;0.32;;;7.00;1.00;;;;;;5081747;28;20039;-79
2024/01/01 02:33:11;;;;;;;1.95;1.85;;;7.00;1.00;;;;;;5071768;28;20039;-79
2024/01/01 02:35:38;;;;;;;0.52;0.52;;;7.00;1.00;;;;;;5088341;28;20045;-79
2024/01/01 02:38:04;;;;;;;5.45;4.45;;;7.00;1.00;;;;;;5083487;28;20051;-79
2024/01/01 02:40:34;;;;;;;5.65;1.85;;;7.00;1.00;;;;;;5086398;28;20049;-79
2024/01/01 02:43:01;;;;;;;0.60;0.60;;;7.00;1.00;;;;;;5076993;28;20039;-80
2024/01/01 02:45:31;;;;;;;0.22;0.22;;;7.00;1.00;;;;;;5082257;28;20048;-79
2024/01/01 02:47:58;;;;;;;2.05;1.20;;;7.00;1.00;;;;;;5080383;28;20038;-79
2024/01/01 02:50:29;;;;;;;1.23;0.47;;;7.00;1.00;;;;;;5081771;28;20024;-78
2024/01/01 02:52:55;;;;;;;0.30;0.30;;;6.90;1.00;;;;;;5079114;28;20025;-81
2024/01/01 02:55:21;;;;;;;1.25;0.98;;;6.90;1.00;;;;;;5080821;28;20485;-79
2024/01/01 02:57:47;;;;;;;0.52;0.52;;;6.90;1.00;;;;;;5080475;28;20032;-76
2024/01/01 03:00:14;;;;;;;0.82;0.82;;;6.90;1.00;;;;;;5064559;28;20043;-78
2024/01/01 03:02:41;;;;;;;0.43;0.43;;;7.00;1.00;;;;;;5059897;28;20461;-76
2024/01/01 03:05:08;;;;;;;1.65;0.88;;;7.00;1.00;;;;;;5078914;28;20048;-74
2024/01/01 03:07:34;;;;;;;0.50;0.50;;;7.00;1.00;;;;;;5065525;28;20036;-78
2024/01/01 03:10:01;;;;;;;2.00;1.60;;;7.00;1.00;;;;;;5082320;28;20036;-76
2024/01/01 03:12:27;;;;;;;0.30;0.30;;;7.10;1.00;;;;;;5062815;28;20044;-78
2024/01/01 03:14:54;;;;;;;0.20;0.20;;;7.00;1.00;;;;;;5081755;28;20032;-78
2024/01/01 03:17:20;;;;;;;1.25;0.93;;;7.00;1.00;;;;;;5080979;28;20031;-79
2024/01/01 03:19:46;;;;;;;0.47;0.47;;;7.00;1.00;;;;;;5078216;28;20091;-78
2024/01/01 03:22:12;;;;;;;1.48;1.38;;;7.00;1.00;;;;;;5078122;28;20052;-79
2024/01/01 03:24:38;;;;;;;1.38;1.27;;;7.00;1.00;;;;;;5078475;28;20040;-78
2024/01/01 03:27:05;;;;;;;0.10;0.10;;;7.10;1.00;;;;;;5079881;28;20055;-80
2024/01/01 03:29:32;;;;;;;0.47;0.47;;;7.10;1.00;;;;;;5079096;28;20039;-78
2024/01/01 03:31:58;;;;;;;0.10;0.10;;;7.10;1.00;;;;;;5078941;28;20033;-79
2024/01/01 03:34:24;;;;;;;0.55;0.55;;;7.10;1.00;;;;;;5078917;28;20028;-80
2024/01/01 03:36:50;;;;;;;0.50;0.50;;;7.00;3.90;;;;;;5078402;28;20399;-80
2024/01/01 03:39:17;;;;;;;0.20;0.20;;;7.00;20.40;;;;;;5077764;28;20049;-80
2024/01/01 03:41:43;;;;;;;1.50;1.02;;;6.90;17.10;;;;;;5077057;28;20024;-81
2024/01/01 03:44:10;;;;;;;0.47;0.47;;;6.90;18.50;;;;;;5079037;28;20024;-79
2024/01/01 03:46:36;;;;;;;0.63;0.57;;;6.90;18.20;;;;;;5082854;28;20028;-81
2024/01/01 03:49:03;;;;;;;0.20;0.20;;;6.90;18.20;;;;;;5083247;28;20036;-81
2024/01/01 03:51:29;;;;;;;3.65;0.30;;;7.00;13.50;;;;;;5084659;28;20031;-79
2024/01/01 03:53:56;;;;;;;0.20;0.20;;;7.00;15.20;;;;;;5061771;28;20036;-79
2024/01/01 03:56:23;;;;;;;0.98;0.98;;;6.90;18.40;;;;;;5081609;28;20044;-77
2024/01/01 03:58:49;;;;;;;0.63;0.63;;;6.90;17.40;;;;;;5066137;28;20472;-79
2024/01/01 04:01:16;;;;;;;1.58;1.48;;;6.90;15.40;;;;;;5079025;28;20547;-79
2024/01/01 04:03:43;;;;;;;0.10;0.10;;;6.80;12.20;;;;;;5066105;28;20036;-79
2024/01/01 04:06:10;;;;;;;0.10;0.10;;;6.80;21.90;;;;;;5080414;28;20787;-80
2024/01/01 04:08:36;;;;;;;0.52;0.52;;;6.70;36.80;;;;;;5078666;28;20033;-79
2024/01/01 04:11:02;;;;;;;0.17;0.17;;;6.60;45.90;;;;;;5072711;28;20514;-78
2024/01/01 04:13:28;;;;;;;0.20;0.20;;;6.60;63.20;;;;;;5079581;28;20044;-78
2024/01/01 04:15:54;;;;;;;0.63;0.63;;;6.50;86.00;;;;;;5079042;28;20380;-79
2024/01/01 04:18:21;;;;;;;0.15;0.15;;;6.50;92.40;;;;;;5081429;28;20384;-80
2024/01/01 04:20:47;;;;;;;0.10;0.10;;;6.50;98.00;;;;;;5077382;28;20099;-80
2024/01/01 04:23:13;;;;;;;0.10;0.10;;;6.50;99.90;;;;;;5078102;28;20032;-80
2024/01/01 04:25:39;;;;;;;0.20;0.20;;;6.50;99.90;;;;;;5078574;28;20032;-79
2024/01/01 04:28:05;;;;;;;0.10;0.10;;;6.50;99.90;;;;;;5079315;28;20043;-80
2024/01/01 04:30:31;;;;;;;0.10;0.10;;;6.60;99.90;;;;;;5078345;28;20033;-80
2024/01/01 04:32:58;;;;;;;0.10;0.10;;;6.60;99.90;;;;;;5078865;28;20056;-81
2024/01/01 04:35:24;;;;;;;0.10;0.10;;;6.60;99.90;;;;;;5061641;28;20370;-80
2024/01/01 04:37:50;;;;;;;1.27;1.17;;;6.50;99.90;;;;;;5056427;28;20473;-82
2024/01/01 04:40:17;;;;;;;0.20;0.20;;;6.50;99.90;;;;;;5064015;28;20037;-82
2024/01/01 04:42:43;;;;;;;0.35;0.30;;;6.50;99.90;;;;;;5061221;28;20037;-82
2024/01/01 04:45:11;;;;;;;0.20;0.20;;;6.50;99.90;;;;;;5057112;28;20041;-82
2024/01/01 04:47:37;;;;;;;0.63;0.63;;;6.40;99.90;;;;;;5056027;28;20037;-81
2024/01/01 04:50:04;;;;;;;0.40;0.30;;;6.40;99.90;;;;;;5058797;28;20052;-80
2024/01/01 04:52:30;;;;;;;0.10;0.10;;;6.40;99.90;;;;;;5059694;28;20041;-79
2024/01/01 04:54:56;;;;;;;0.15;0.13;;;6.40;99.90;;;;;;5061525;28;20035;-78
2024/01/01 04:57:22;;;;;;;4.85;0.70;;;6.40;99.90;;;;;;5058410;28;20029;-79
2024/01/01 04:59:48;;;;;;;0.17;0.17;;;6.40;99.90;;;;;;5059173;28;20020;-77
2024/01/01 05:02:15;;;;;;;0.15;0.15;;;6.40;99.90;;;;;;5059349;28;20202;-78
2024/01/01 05:04:41;;;;;;;3.03;1.25;;;6.30;1.00;;;;;;5060309;28;20047;-78
2024/01/01 05:07:08;;;;;;;0.32;0.32;;;6.30;1.00;;;;;;5059612;28;20048;-78
2024/01/01 05:09:34;;;;;;;0.63;0.63;;;6.30;1.00;;;;;;5060641;28;20041;-79
2024/01/01 05:12:00;;;;;;;0.25;0.25;;;6.20;1.00;;;;;;5057714;28;20028;-78
2024/01/01 05:14:26;;;;;;;1.35;1.25;;;6.20;1.00;;;;;;5058099;28;20040;-79
2024/01/01 05:16:52;;;;;;;0.10;0.10;;;6.20;1.00;;;;;;5058858;28;20033;-79
2024/01/01 05:19:18;;;;;;;4.47;1.40;;;6.10;1.00;;;;;;5058559;28;20032;-79
2024/01/01 05:21:44;;;;;;;0.98;0.95;;;6.10;1.00;;;;;;5055660;28;20461;-77
2024/01/01 05:24:11;;;;;;;0.43;0.43;;;6.10;1.00;;;;;;5057206;28;20041;-78
2024/01/01 05:26:37;;;;;;;5.28;1.75;;;6.10;14.70;;;;;;5056886;28;20383;-78
2024/01/01 05:29:03;;;;;;;2.58;1.77;;;6.00;43.60;;;;;;5055389;28;20047;-79
2024/01/01 05:31:29;;;;;;;0.15;0.15;;;5.90;78.60;;;;;;5059090;28;20040;-78
2024/01/01 05:33:56;;;;;;;3.30;1.00;;;5.90;96.50;;;;;;5055991;28;20029;-77
2024/01/01 05:36:23;;;;;;;0.95;0.90;;;5.90;99.80;;;;;;5062685;28;20150;-78
2024/01/01 05:38:49;;;;;;;1.52;1.42;;;5.90;99.90;;;;;;5057031;28;20037;-78
2024/01/01 05:41:15;;;;;;;0.10;0.10;;;5.90;99.90;;;;;;5059861;28;20214;-77
2024/01/01 05:43:41;;;;;;;0.30;0.28;;;6.00;98.40;;;;;;5058441;28;20361;-78
2024/01/01 05:46:07;;;;;;;0.22;0.22;;;6.00;99.90;;;;;;5061283;28;20032;-78
2024/01/01 05:48:33;;;;;;;0.20;0.20;;;6.00;95.40;;;;;;5061106;28;20036;-78
2024/01/01 05:50:59;;;;;;;0.45;0.40;;;5.90;71.60;;;;;;5063238;28;20028;-78
2024/01/01 05:53:26;;;;;;;0.28;0.25;;;6.00;6.20;;;;;;5059156;28;20039;-78
2024/01/01 05:55:52;;;;;;;0.10;0.10;;;6.00;1.00;;;;;;5061896;28;20044;-77
2024/01/01 05:58:18;;;;;;;2.70;0.95;;;6.00;1.00;;;;;;5060795;28;20040;-77
2024/01/01 06:00:45;;;;;;;0.17;0.17;;;6.10;1.00;;;;;;5061350;28;20056;-77
2024/01/01 06:03:11;;;;;;;0.10;0.10;;;6.10;1.00;;;;;;5059974;28;20033;-77
2024/01/01 06:05:37;;;;;;;0.10;0.10;;;6.00;1.00;;;;;;5062145;28;20373;-78
2024/01/01 06:08:04;;;;;;;0.57;0.57;;;6.10;1.00;;;;;;5045290;28;20397;-77
2024/01/01 06:10:31;;;;;;;0.90;0.75;;;6.10;1.00;;;;;;5062079;28;20043;-78
2024/01/01 06:12:58;;;;;;;0.10;0.10;;;6.00;1.00;;;;;;5057377;28;20405;-77
2024/01/01 06:15:25;;;;;;;4.03;1.08;;;6.00;1.00;;;;;;5064827;28;20044;-78
2024/01/01 06:17:52;;;;;;;1.48;0.98;;;6.00;1.00;;;;;;5061497;28;20032;-77
2024/01/01 06:20:19;;;;;;;0.10;0.10;;;5.90;1.00;;;;;;5062171;28;20032;-78
2024/01/01 06:22:48;;;;;;;0.40;0.40;;;5.90;1.00;;;;;;5060052;28;20033;-77
2024/01/01 06:25:15;;;;;;;1.38;1.27;;;5.90;1.00;;;;;;5065169;28;20113;-78
2024/01/01 06:27:41;;;;;;;0.13;0.13;;;5.90;1.00;;;;;;5061364;28;20037;-79
2024/01/01 06:30:07;;;;;;;0.10;0.10;;;5.80;1.00;;;;;;5060606;28;20033;-79
2024/01/01 06:32:33;;;;;;;0.10;0.10;;;5.90;1.00;;;;;;5059855;28;20029;-79
2024/01/01 06:35:00;;;;;;;0.22;0.22;;;5.90;1.00;;;;;;5058786;28;20056;-79
2024/01/01 06:37:26;;;;;;;0.52;0.50;;;6.00;1.00;;;;;;5061460;28;20063;-79
2024/01/01 06:39:52;;;;;;;0.10;0.10;;;5.90;1.00;;;;;;5061701;28;20044;-78
2024/01/01 06:42:18;;;;;;;0.52;0.52;;;5.90;1.00;;;;;;5059867;28;20040;-79
2024/01/01 06:44:44;;;;;;;0.47;0.47;;;6.00;99.90;;;;;;5061241;28;20039;-79
2024/01/01 06:47:10;;;;;;;0.10;0.10;;;6.10;99.90;;;;;;5058280;28;20052;-79
2024/01/01 06:49:37;;;;;;;0.10;0.10;;;6.10;99.90;;;;;;5064247;28;20048;-79
2024/01/01 06:52:07;;;;;;;12.50;1.75;;;6.00;99.90;;;;;;5066749;28;20060;-79
2024/01/01 06:54:33;;;;;;;0.10;0.10;;;6.00;99.90;;;;;;5065963;28;20025;-77
2024/01/01 06:57:02;;;;;;;1.10;0.90;;;6.00;99.90;;;;;;5065574;28;20044;-78
2024/01/01 06:59:30;;;;;;;0.20;0.20;;;6.00;99.90;;;;;;5060068;28;20028;-79
2024/01/01 07:01:58;;;;;;;0.13;0.13;;;6.10;99.90;;;;;;5058595;28;20025;-78
2024/01/01 07:04:25;;;;;;;1.33;1.23;;;6.10;99.90;;;;;;5060100;28;20492;-78
2024/01/01 07:06:52;;;;;;;2.30;1.23;;;6.10;99.90;;;;;;5057747;28;20048;-78
2024/01/01 07:09:18;;;;;;;0.75;0.75;;;6.00;99.90;;;;;;5066195;28;20052;-79
2024/01/01 07:11:45;;;;;;;0.20;0.20;;;6.00;99.90;;;;;;5061427;28;20029;-78
2024/01/01 07:14:11;;;;;;;1.20;0.65;;;6.10;99.90;;;;;;5035671;28;20045;-79
2024/01/01 07:16:37;;;;;;;0.55;0.50;;;6.00;99.90;;;;;;5058625;28;20389;-78
2024/01/01 07:19:03;;;;;;;0.10;0.10;;;6.10;99.90;;;;;;5058042;28;20495;-78
2024/01/01 07:21:29;;;;;;;0.40;0.40;;;6.10;99.90;;;;;;5060923;28;20029;-78
2024/01/01 07:23:56;;;;;;;1.38;0.52;;;6.20;99.90;;;;;;5060133;28;20381;-78
2024/01/01 07:26:22;;;;;;;0.17;0.17;;;6.20;99.90;;;;;;5062722;28;20131;-79
2024/01/01 07:28:48;;;;;;;0.10;0.10;;;6.20;99.90;;;;;;5058760;28;20045;-79
2024/01/01 07:31:14;;;;;;;0.10;0.10;;;6.10;99.90;;;;;;5061213;28;20276;-79
2024/01/01 07:33:40;;;;;;;0.10;0.10;;;6.20;99.90;;;;;;5061131;28;20032;-78
2024/01/01 07:36:11;;;;;;;0.10;0.10;;;6.20;99.90;;;;;;5067060;28;20053;-79
2024/01/01 07:38:38;;;;;;;0.47;0.47;;;6.10;99.90;;;;;;5065129;28;20045;-79
2024/01/01 07:41:04;;;;;;;0.10;0.10;;;6.20;99.90;;;;;;5060858;28;20040;-79
2024/01/01 07:43:31;;;;;;;0.10;0.10;;;6.20;99.90;;;;;;5073274;28;20029;-79
2024/01/01 07:45:57;;;;;;;0.47;0.47;;;6.30;99.90;;;;;;5067999;28;20044;-79
2024/01/01 07:48:23;;;;;;;0.75;0.57;;;6.20;99.90;;;;;;5062642;28;20055;-78
2024/01/01 07:50:49;;;;;;;0.10;0.10;;;6.30;99.90;;;;;;5060056;28;20041;-77
2024/01/01 07:53:15;;;;;;;1.08;0.52;;;6.30;99.90;;;;;;5059155;28;20043;-77
2024/01/01 07:55:41;;;;;;;0.20;0.20;;;6.40;99.90;;;;;;5034266;28;20045;-78
2024/01/01 07:58:07;;;;;;;0.77;0.77;;;6.40;99.90;;;;;;5063951;28;20032;-77
2024/01/01 08:00:34;;;;;;;0.10;0.10;;;6.40;99.90;;;;;;5066548;28;20045;-78
2024/01/01 08:03:00;;;;;;;0.40;0.40;;;6.50;99.90;;;;;;5055625;28;20043;-78
2024/01/01 08:05:26;;;;;;;0.65;0.65;;;6.50;99.90;;;;;;5061654;28;20052;-78
2024/01/01 08:07:53;;;;;;;0.35;0.35;;;6.50;99.90;;;;;;5056201;28;20044;-78
2024/01/01 08:10:19;;;;;;;0.40;0.30;;;6.40;99.90;;;;;;5055484;28;20051;-77
2024/01/01 08:12:45;;;;;;;0.25;0.25;;;6.50;99.90;;;;;;5059876;28;20035;-78
2024/01/01 08:15:11;;;;;;;0.40;0.35;;;6.50;99.90;;;;;;5057314;28;20528;-79
2024/01/01 08:17:38;;;;;;;0.10;0.10;;;6.60;99.90;;;;;;5058897;28;20032;-79
2024/01/01 08:20:04;;;;;;;0.43;0.43;;;6.60;99.90;;;;;;5056503;28;20050;-77
2024/01/01 08:22:31;;;;;;;0.20;0.20;;;6.60;72.50;;;;;;5056570;28;20029;-78
2024/01/01 08:24:57;;;;;;;0.17;0.17;;;6.70;46.40;;;;;;5063292;28;20465;-80
2024/01/01 08:27:23;;;;;;;0.10;0.10;;;6.70;49.70;;;;;;5061262;28;20051;-77
2024/01/01 08:29:49;;;;;;;0.10;0.10;;;6.70;35.10;;;;;;5057003;28;20040;-78
2024/01/01 08:32:16;;;;;;;0.95;0.60;;;6.70;23.20;;;;;;5056879;28;20024;-75
2024/01/01 08:34:42;;;;;;;0.30;0.30;;;6.80;3.60;;;;;;5057362;28;20490;-79
2024/01/01 08:37:08;;;;;;;0.28;0.28;;;6.80;1.00;;;;;;5060636;28;20048;-77
2024/01/01 08:39:34;;;;;;;0.10;0.10;;;6.80;1.00;;;;;;5056871;28;20386;-79
2024/01/01 08:42:00;;;;;;;0.10;0.10;;;6.90;1.00;;;;;;5055001;28;20836;-77
2024/01/01 08:44:27;;;;;;;0.35;0.32;;;6.90;1.00;;;;;;5059475;28;20035;-77
2024/01/01 08:46:53;;;;;;;4.78;1.30;;;7.00;1.00;;;;;;5057061;28;20468;-79
2024/01/01 08:49:19;;;;;;;0.10;0.10;;;7.00;1.00;;;;;;5057955;28;20045;-79
2024/01/01 08:51:45;;;;;;;0.10;0.10;;;7.00;1.00;;;;;;5055064;28;20033;-83
2024/01/01 08:54:13;;;;;;;0.10;0.10;;;7.20;1.00;;;;;;5060241;28;20020;-81
2024/01/01 08:56:41;;;;;;;0.65;0.43;;;7.20;1.00;;;;;;5067578;28;20040;-82
2024/01/01 08:59:09;;;;;;;0.20;0.20;;;7.30;1.00;;;;;;5062443;28;20461;-81
2024/01/01 09:01:36;;;;;;;1.40;0.98;;;7.30;1.00;;;;;;5064354;28;20035;-81
2024/01/01 09:04:04;;;;;;;0.28;0.28;;;7.30;1.00;;;;;;5065673;28;20037;-78
2024/01/01 09:06:31;;;;;;;0.22;0.22;;;7.40;1.00;;;;;;5062949;28;20037;-79
2024/01/01 09:08:57;;;;;;;0.50;0.50;;;7.40;1.00;;;;;;5061749;28;20040;-78
2024/01/01 09:11:24;;;;;;;0.95;0.95;;;7.30;1.00;;;;;;5066235;28;20032;-79
2024/01/01 09:13:50;;;;;;;2.13;2.03;;;7.40;1.00;;;;;;5033453;28;20441;-80
2024/01/01 09:16:16;;;;;;;2.08;0.85;;;7.40;1.00;;;;;;5058828;28;20037;-79
2024/01/01 09:18:42;;;;;;;1.52;1.42;;;7.40;1.00;;;;;;5066388;28;20032;-80
2024/01/01 09:21:17;;;;;;;3.08;1.92;;;7.50;1.00;;;;;;5062685;28;20047;-81
2024/01/01 09:23:44;;;;;;;1.17;0.95;;;7.60;1.00;;;;;;5059367;28;20040;-80
2024/01/01 09:26:12;;;;;;;1.48;1.38;;;7.60;1.00;;;;;;5064217;28;20072;-80
2024/01/01 09:28:38;;;;;;;12.15;4.97;;;7.60;1.00;;;;;;5061324;28;20041;-81
2024/01/01 09:31:04;;;;;;;22.17;5.68;;;7.70;1.00;;;;;;5061024;28;20029;-81
2024/01/01 09:33:31;;;;;;;9.40;6.60;;;7.70;1.00;;;;;;5061877;28;20025;-80
2024/01/01 09:35:57;;;;;;;4.60;3.67;;;7.70;1.00;;;;;;5064642;28;20061;-79
2024/01/01 09:38:23;;;;;;;0.93;0.57;;;7.70;99.90;;;;;;5067767;28;20420;-80
2024/01/01 09:40:49;;;;;;;2.28;1.45;;;7.70;99.90;;;;;;5067055;28;20044;-80
2024/01/01 09:43:17;;;;;;;0.65;0.57;;;7.70;1.00;;;;;;5066995;28;20032;-80
2024/01/01 09:45:47;;;;;;;3.88;1.52;;;7.80;1.00;;;;;;5068489;28;20461;-80
2024/01/01 09:48:13;;;;;;;1.73;1.17;;;7.80;1.00;;;;;;5064492;28;20029;-80
2024/01/01 09:50:39;;;;;;;1.65;0.90;;;7.90;99.90;;;;;;5067127;28;20048;-80
2024/01/01 09:53:06;;;;;;;0.40;0.40;;;8.00;99.90;;;;;;5063362;28;20047;-79
2024/01/01 09:55:32;;;;;;;5.97;2.13;;;8.10;99.90;;;;;;5061551;28;20043;-81
2024/01/01 09:57:58;;;;;;;1.42;1.23;;;8.20;99.90;;;;;;5067900;28;20067;-78
2024/01/01 10:00:25;;;;;;;0.17;0.17;;;8.30;99.90;;;;;;5078915;28;20032;-80
2024/01/01 10:03:10;;;;;;;3.08;2.25;;;8.20;99.90;;;;;;5063069;28;20028;-79
2024/01/01 10:05:40;;;;;;;0.55;0.50;;;8.20;99.90;;;;;;5081363;28;20039;-79
2024/01/01 10:08:08;;;;;;;0.63;0.63;;;8.30;99.90;;;;;;5082338;28;20048;-78
2024/01/01 10:10:36;;;;;;;0.57;0.52;;;8.30;99.90;;;;;;5078524;28;20040;-78
2024/01/01 10:13:15;;;;;;;2.22;0.85;;;8.40;99.90;;;;;;5078847;28;20028;-78
2024/01/01 10:15:43;;;;;;;8.27;0.40;;;8.50;99.90;;;;;;5082343;28;20020;-79
2024/01/01 10:18:13;;;;;;;0.10;0.10;;;8.70;99.90;;;;;;5083663;28;20025;-78
2024/01/01 10:20:42;;;;;;;0.10;0.10;;;8.70;99.90;;;;;;5061363;28;20392;-78
2024/01/01 10:23:21;;;;;;;0.10;0.10;;;8.80;99.90;;;;;;5064912;28;20033;-81
2024/01/01 10:25:49;;;;;;;0.85;0.63;;;8.80;99.90;;;;;;5085391;28;20035;-79
2024/01/01 10:28:16;;;;;;;0.20;0.20;;;8.80;99.90;;;;;;5084843;28;20045;-80
2024/01/01 10:30:46;;;;;;;0.10;0.10;;;8.90;99.90;;;;;;5071887;28;20043;-77
2024/01/01 10:33:14;;;;;;;2.35;1.88;;;9.00;99.90;;;;;;5078260;28;20037;-79
2024/01/01 10:35:40;;;;;;;1.02;0.55;;;9.00;99.90;;;;;;5067635;28;20047;-80
2024/01/01 10:38:06;;;;;;;0.20;0.20;;;9.00;99.90;;;;;;5087678;28;20047;-79
2024/01/01 10:40:33;;;;;;;10.15;1.48;;;9.00;99.90;;;;;;5083328;28;20476;-78
2024/01/01 10:43:00;;;;;;;1.10;0.45;;;9.00;99.90;;;;;;5077938;28;20024;-81
2024/01/01 10:45:27;;;;;;;0.10;0.10;;;9.00;99.90;;;;;;5080485;28;20040;-78
2024/01/01 10:47:57;;;;;;;0.10;0.10;;;9.00;99.90;;;;;;5082992;28;20033;-78
2024/01/01 10:50:31;;;;;;;0.10;0.10;;;9.00;99.90;;;;;;5053190;28;20036;-79
2024/01/01 10:53:12;;;;;;;0.95;0.63;;;9.00;99.90;;;;;;5079504;28;20033;-80
2024/01/01 10:55:53;;;;;;;0.15;0.15;;;8.90;99.90;;;;;;5078522;28;20028;-80
2024/01/01 10:58:31;;;;;;;7.07;1.25;;;8.90;99.90;;;;;;5084161;28;20779;-79
2024/01/01 11:01:12;;;;;;;0.20;0.20;;;8.80;99.90;;;;;;5071607;28;20036;-79
2024/01/01 11:03:38;;;;;;;0.10;0.10;;;8.70;99.90;;;;;;5069893;28;20032;-77
2024/01/01 11:06:38;;;;;;;2.30;1.45;;;8.70;99.90;;;;;;5087671;28;20031;-80
2024/01/01 11:09:19;;;;;;;0.25;0.25;;;8.80;99.90;;;;;;5083023;28;20051;-81
2024/01/01 11:11:50;;;;;;;0.80;0.47;;;8.90;99.90;;;;;;5077504;28;20028;-81
2024/01/01 11:14:34;;;;;;;0.45;0.45;;;8.90;99.90;;;;;;5081293;28;20039;-81
2024/01/01 11:17:06;;;;;;;0.10;0.10;;;8.80;99.90;;;;;;5068133;28;20044;-80
2024/01/01 11:19:51;;;;;;;5.47;1.50;;;8.80;99.90;;;;;;5079027;28;20029;-78
2024/01/01 11:22:20;;;;;;;8.18;0.45;;;8.80;99.90;;;;;;5063837;28;20040;-82
2024/01/01 11:24:47;;;;;;;0.50;0.50;;;8.80;99.90;;;;;;5078969;28;20036;-86
2024/01/01 11:27:33;;;;;;;0.68;0.63;;;8.70;99.90;;;;;;5082942;28;20036;-78
2024/01/01 11:30:07;;;;;;;1.30;1.20;;;8.70;99.90;;;;;;5082939;28;20032;-79
2024/01/01 11:32:37;;;;;;;0.55;0.50;;;8.80;99.90;;;;;;5079099;28;20453;-78
2024/01/01 11:35:15;;;;;;;2.25;0.55;;;8.90;99.90;;;;;;5077634;28;20048;-77
2024/01/01 11:37:44;;;;;;;1.30;1.20;;;9.00;99.90;;;;;;5069893;28;20043;-78
2024/01/01 11:40:11;;;;;;;0.43;0.35;;;9.20;99.90;;;;;;5080996;28;20062;-78
2024/01/01 11:42:38;;;;;;;2.50;0.75;;;9.20;99.90;;;;;;5078117;28;20035;-79
2024/01/01 11:45:09;;;;;;;0.85;0.85;;;9.30;95.50;;;;;;5085146;28;20047;-79
2024/01/01 11:47:36;;;;;;;5.28;0.73;;;9.20;60.50;;;;;;5085591;28;20039;-79
2024/01/01 11:50:04;;;;;;;9.85;2.30;;;9.10;81.70;;;;;;5075077;28;20785;-79
2024/01/01 11:52:30;;;;;;;0.60;0.60;;;9.00;67.30;;;;;;5079617;28;20036;-80
2024/01/01 11:54:57;;;;;;;0.10;0.10;;;8.90;89.10;;;;;;5079869;28;20033;-79
2024/01/01 11:57:23;;;;;;;0.10;0.10;;;8.80;99.90;;;;;;5078556;28;20037;-79
2024/01/01 11:59:50;;;;;;;0.25;0.25;;;8.70;99.90;;;;;;5082400;28;20423;-78
2024/01/01 12:02:17;;;;;;;2.85;1.23;;;8.60;99.90;;;;;;5078664;28;20055;-79
2024/01/01 12:04:49;;;;;;;0.13;0.13;;;8.60;99.90;;;;;;5082678;28;20032;-79
2024/01/01 12:07:34;;;;;;;0.63;0.63;;;8.40;99.90;;;;;;5082778;28;20098;-80
2024/01/01 12:10:08;;;;;;;0.30;0.30;;;8.30;99.90;;;;;;5085481;28;20051;-79
2024/01/01 12:12:36;;;;;;;0.32;0.32;;;8.20;99.90;;;;;;5083479;28;20031;-79
2024/01/01 12:15:16;;;;;;;5.88;1.08;;;8.20;99.90;;;;;;5085340;28;20480;-79
2024/01/01 12:17:44;;;;;;;0.25;0.25;;;8.20;99.90;;;;;;5068292;28;20035;-79
2024/01/01 12:20:18;;;;;;;0.35;0.35;;;8.20;99.90;;;;;;5084491;28;20036;-79
2024/01/01 12:22:45;;;;;;;3.40;1.55;;;8.20;99.90;;;;;;5064088;28;20040;-78
2024/01/01 12:25:19;;;;;;;0.40;0.30;;;8.20;99.90;;;;;;5082176;28;20747;-78
2024/01/01 12:28:03;;;;;;;0.63;0.57;;;8.20;99.90;;;;;;5083108;28;20125;-79
2024/01/01 12:30:30;;;;;;;0.60;0.47;;;8.30;99.90;;;;;;5068388;28;20062;-79
2024/01/01 12:32:57;;;;;;;3.95;1.23;;;8.40;99.90;;;;;;5062559;28;20036;-79
2024/01/01 12:35:23;;;;;;;0.30;0.30;;;8.50;99.90;;;;;;5079887;28;20491;-79
2024/01/01 12:37:51;;;;;;;1.45;0.88;;;8.60;99.90;;;;;;5081703;28;20040;-79
2024/01/01 12:40:17;;;;;;;12.40;0.70;;;8.60;99.90;;;;;;5081303;28;20044;-80
2024/01/01 12:42:44;;;;;;;0.55;0.55;;;8.70;99.90;;;;;;5083849;28;20039;-73
2024/01/01 12:45:16;;;;;;;0.20;0.20;;;8.70;99.90;;;;;;5084902;28;20103;-73
2024/01/01 12:47:42;;;;;;;10.77;1.95;;;8.80;99.90;;;;;;5088202;28;20036;-72
2024/01/01 12:50:09;;;;;;;0.45;0.30;;;8.80;99.90;;;;;;5066971;28;20488;-77
2024/01/01 12:52:36;;;;;;;0.20;0.20;;;8.90;99.90;;;;;;5086115;28;20028;-75
2024/01/01 12:55:02;;;;;;;0.10;0.10;;;9.00;99.90;;;;;;5089044;28;20476;-77
2024/01/01 12:57:28;;;;;;;0.10;0.10;;;9.10;99.90;;;;;;5086557;28;20036;-76
2024/01/01 12:59:55;;;;;;;0.77;0.38;;;9.20;99.90;;;;;;5088526;28;20040;-75
2024/01/01 13:02:22;;;;;;;0.85;0.85;;;9.20;83.50;;;;;;5065929;28;20115;-77